This is the latest recevied weather packets stored in our database for station/object XE1E-15. If no packets are shown the sender has not sent any weather packets the latest 1 day(s).
| Time | Temp. | Humidity | Pressure | Rain* | Wind** | Luminosity | Snow |
|---|---|---|---|---|---|---|---|
| 1777919079 | 30.56° C | 35% | 1024.8 hPa | - | - | - | - |
| 1777918119 | 31.67° C | 33% | 1024.9 hPa | - | - | - | - |
| 1777917159 | 32.78° C | 33% | 1025.1 hPa | - | - | - | - |
| 1777916199 | 32.78° C | 32% | 1025.3 hPa | - | - | - | - |
| 1777915239 | 30.56° C | 36% | 1025.5 hPa | - | - | - | - |
| 1777914279 | 32.78° C | 32% | 1025.6 hPa | - | - | - | - |
| 1777913319 | 32.22° C | 34% | 1025.7 hPa | - | - | - | - |
| 1777912359 | 32.22° C | 35% | 1025.8 hPa | - | - | - | - |
| 1777911398 | 30° C | 40% | 1026 hPa | - | - | - | - |
| 1777910438 | 28.33° C | 42% | 1026 hPa | - | - | - | - |
| 1777909478 | 28.89° C | 44% | 1026 hPa | - | - | - | - |
| 1777908518 | 26.11° C | 46% | 1026.1 hPa | - | - | - | - |
| 1777907558 | 27.22° C | 48% | 1026.1 hPa | - | - | - | - |
| 1777906597 | 27.22° C | 49% | 1026 hPa | - | - | - | - |
| 1777906121 | 25° C | 53% | 1025.9 hPa | - | - | - | - |
| 1777905161 | 26.67° C | 51% | 1025.8 hPa | - | - | - | - |
| 1777904201 | 25.56° C | 56% | 1025.7 hPa | - | - | - | - |
| 1777903241 | 25° C | 56% | 1025.7 hPa | - | - | - | - |
| 1777902281 | 24.44° C | 60% | 1025.5 hPa | - | - | - | - |
| 1777901352 | 23.89° C | 64% | 1025.5 hPa | - | - | - | - |
| 1777901320 | 23.89° C | 64% | 1025.5 hPa | - | - | - | - |
| 1777900360 | 23.89° C | 64% | 1025.5 hPa | - | - | - | - |
| 1777899399 | 23.33° C | 67% | 1025.5 hPa | - | - | - | - |
| 1777898439 | 22.78° C | 66% | 1025.1 hPa | - | - | - | - |
| 1777897479 | 22.78° C | 68% | 1024.9 hPa | - | - | - | - |
* Rain since midnight (hover to see other rain measurements)
** Current wind speed in m/s (hover to see current wind gust speed)